createdAt,value
2019-01-30T00:00:25.718Z,98452.17
2019-01-30T00:02:54.443Z,98445.69
2019-01-30T00:05:23.166Z,98442.82
2019-01-30T00:07:51.932Z,98440.42
2019-01-30T00:10:20.647Z,98436.15
2019-01-30T00:12:49.367Z,98436.40
2019-01-30T00:15:18.326Z,98444.19
2019-01-30T00:17:47.049Z,98453.59
2019-01-30T00:20:15.772Z,98452.38
2019-01-30T00:22:44.571Z,98455.52
2019-01-30T00:25:14.286Z,98456.03
2019-01-30T00:27:43.016Z,98453.78
2019-01-30T00:30:19.929Z,98446.80
2019-01-30T00:32:48.759Z,98447.97
2019-01-30T00:35:17.477Z,98456.31
2019-01-30T00:37:46.343Z,98470.32
2019-01-30T00:40:17.957Z,98469.72
2019-01-30T00:42:46.684Z,98471.41
2019-01-30T00:45:17.143Z,98476.86
2019-01-30T00:47:46.463Z,98475.81
2019-01-30T00:50:17.451Z,98473.19
2019-01-30T00:52:46.210Z,98462.60
2019-01-30T00:55:15.133Z,98458.51
2019-01-30T00:57:43.927Z,98434.53
2019-01-30T01:00:27.004Z,98432.74
2019-01-30T01:02:55.940Z,98447.38
2019-01-30T01:05:24.755Z,98443.76
2019-01-30T01:07:53.758Z,98437.57
2019-01-30T01:10:22.776Z,98434.03
2019-01-30T01:12:51.602Z,98431.28
2019-01-30T01:15:20.600Z,98416.88
2019-01-30T01:17:49.316Z,98417.45
2019-01-30T01:20:22.999Z,98413.92
2019-01-30T01:22:51.798Z,98404.38
2019-01-30T01:25:20.518Z,98410.64
2019-01-30T01:27:49.248Z,98410.44
2019-01-30T01:30:26.263Z,98397.31
2019-01-30T01:32:55.001Z,98402.27
2019-01-30T01:35:24.232Z,98395.89
2019-01-30T01:37:53.002Z,98394.45
2019-01-30T01:40:21.723Z,98397.97
2019-01-30T01:42:50.450Z,98394.74
2019-01-30T01:45:21.564Z,98394.45
2019-01-30T01:47:50.283Z,98388.02
2019-01-30T01:50:20.610Z,98367.58
2019-01-30T01:52:49.462Z,98363.05
2019-01-30T01:55:18.187Z,98358.81
2019-01-30T01:57:46.903Z,98354.45
2019-01-30T02:00:21.543Z,98351.86
2019-01-30T02:02:50.361Z,98358.49
2019-01-30T02:05:23.790Z,98345.90
2019-01-30T02:07:53.302Z,98329.12
2019-01-30T02:10:24.234Z,98335.27
2019-01-30T02:12:53.159Z,98328.91
2019-01-30T02:15:23.633Z,98322.92
2019-01-30T02:17:52.951Z,98325.50
2019-01-30T02:20:27.744Z,98320.08
2019-01-30T02:22:56.461Z,98328.14
2019-01-30T02:25:25.189Z,98319.06
2019-01-30T02:27:54.466Z,98312.17
2019-01-30T02:30:25.488Z,98308.77
2019-01-30T02:32:54.215Z,98300.98
2019-01-30T02:35:23.969Z,98282.56
2019-01-30T02:37:52.887Z,98295.34
2019-01-30T02:40:22.507Z,98320.68
2019-01-30T02:42:51.627Z,98335.41
2019-01-30T02:45:22.339Z,98333.83
2019-01-30T02:47:51.058Z,98330.02
2019-01-30T02:50:20.668Z,98338.30
2019-01-30T02:52:55.276Z,98337.22
2019-01-30T02:55:24.094Z,98332.01
2019-01-30T02:57:52.920Z,98327.77
2019-01-30T03:00:30.205Z,98322.16
2019-01-30T03:02:59.144Z,98319.72
2019-01-30T03:05:27.974Z,98314.25
2019-01-30T03:07:56.689Z,98309.61
2019-01-30T03:10:25.500Z,98299.02
2019-01-30T03:12:54.210Z,98295.39
2019-01-30T03:15:23.323Z,98290.22
2019-01-30T03:17:52.194Z,98290.91
2019-01-30T03:20:29.071Z,98288.17
2019-01-30T03:22:58.318Z,98291.55
2019-01-30T03:25:27.235Z,98289.15
2019-01-30T03:27:55.949Z,98294.09
2019-01-30T03:30:30.361Z,98296.77
2019-01-30T03:32:59.278Z,98291.89
2019-01-30T03:35:28.152Z,98295.50
2019-01-30T03:37:57.302Z,98300.63
2019-01-30T03:40:26.110Z,98294.27
2019-01-30T03:42:54.833Z,98293.10
2019-01-30T03:45:25.039Z,98287.67
2019-01-30T03:47:54.149Z,98293.51
2019-01-30T03:50:22.865Z,98296.95
2019-01-30T03:52:51.746Z,98295.91
2019-01-30T03:55:21.361Z,98291.70
2019-01-30T03:57:50.078Z,98290.88
2019-01-30T04:00:21.442Z,98294.70
2019-01-30T04:02:51.931Z,98287.94
2019-01-30T04:05:20.647Z,98287.22
2019-01-30T04:07:49.456Z,98292.29
2019-01-30T04:10:20.277Z,98295.45
2019-01-30T04:12:49.098Z,98297.48
2019-01-30T04:15:18.068Z,98284.63
2019-01-30T04:17:46.774Z,98274.00
2019-01-30T04:20:20.174Z,98268.48
2019-01-30T04:22:49.602Z,98262.27
2019-01-30T04:25:18.721Z,98253.24
2019-01-30T04:27:47.495Z,98255.30
2019-01-30T04:30:28.981Z,98258.91
2019-01-30T04:32:57.695Z,98255.14
2019-01-30T04:35:26.410Z,98269.94
2019-01-30T04:37:55.579Z,98267.68
2019-01-30T04:40:24.295Z,98277.59
2019-01-30T04:42:53.016Z,98282.66
2019-01-30T04:45:24.150Z,98286.89
2019-01-30T04:47:52.960Z,98293.86
2019-01-30T04:50:21.670Z,98290.55
2019-01-30T04:52:50.657Z,98288.79
2019-01-30T04:55:19.973Z,98290.81
2019-01-30T04:57:48.687Z,98288.53
2019-01-30T05:00:20.260Z,98295.31
2019-01-30T05:02:49.077Z,98288.34
2019-01-30T05:05:17.884Z,98291.50
2019-01-30T05:07:47.673Z,98284.61
2019-01-30T05:10:16.370Z,98282.78
2019-01-30T05:12:45.190Z,98283.83
2019-01-30T05:15:19.244Z,98278.89
2019-01-30T05:17:47.976Z,98285.50
2019-01-30T05:20:18.688Z,98289.20
2019-01-30T05:22:47.437Z,98295.72
2019-01-30T05:25:16.447Z,98303.33
2019-01-30T05:27:45.165Z,98301.48
2019-01-30T05:30:28.876Z,98306.16
2019-01-30T05:32:57.595Z,98307.23
2019-01-30T05:35:26.308Z,98318.89
2019-01-30T05:37:55.265Z,98318.41
2019-01-30T05:40:24.379Z,98323.89
2019-01-30T05:42:53.115Z,98325.64
2019-01-30T05:45:22.076Z,98343.03
2019-01-30T05:47:50.790Z,98347.24
2019-01-30T05:50:19.515Z,98341.43
2019-01-30T05:52:48.361Z,98335.85
2019-01-30T05:55:17.775Z,98336.39
2019-01-30T05:57:52.397Z,98329.63
2019-01-30T06:00:28.399Z,98324.07
2019-01-30T06:02:57.217Z,98318.30
2019-01-30T06:05:26.051Z,98326.98
2019-01-30T06:07:55.009Z,98311.16
2019-01-30T06:10:23.827Z,98305.53
2019-01-30T06:12:52.565Z,98297.42
2019-01-30T06:15:22.327Z,98295.73
2019-01-30T06:17:51.046Z,98297.91
2019-01-30T06:20:22.474Z,98289.96
2019-01-30T06:22:51.237Z,98278.44
2019-01-30T06:25:19.947Z,98284.97
2019-01-30T06:27:48.676Z,98288.38
2019-01-30T06:30:19.331Z,98291.92
2019-01-30T06:32:48.129Z,98283.75
2019-01-30T06:35:16.951Z,98278.98
2019-01-30T06:37:45.826Z,98280.67
2019-01-30T06:40:19.909Z,98280.41
2019-01-30T06:42:48.630Z,98274.50
2019-01-30T06:45:17.679Z,98279.14
2019-01-30T06:47:46.389Z,98275.07
2019-01-30T06:50:15.601Z,98273.27
2019-01-30T06:52:44.366Z,98275.88
2019-01-30T06:55:13.087Z,98282.22
2019-01-30T06:57:41.916Z,98278.07
2019-01-30T07:00:13.732Z,98283.78
2019-01-30T07:02:42.453Z,98279.64
2019-01-30T07:05:11.266Z,98275.91
2019-01-30T07:07:40.132Z,98272.77
2019-01-30T07:10:14.602Z,98273.69
2019-01-30T07:12:43.313Z,98277.50
2019-01-30T07:15:12.590Z,98281.90
2019-01-30T07:17:41.299Z,98277.11
2019-01-30T07:20:12.822Z,98276.62
2019-01-30T07:22:42.055Z,98282.98
2019-01-30T07:25:13.938Z,98285.33
2019-01-30T07:27:42.768Z,98292.65
2019-01-30T07:30:23.315Z,98286.17
2019-01-30T07:32:52.036Z,98283.59
2019-01-30T07:35:20.755Z,98282.90
2019-01-30T07:37:49.501Z,98279.22
2019-01-30T07:40:18.421Z,98277.97
2019-01-30T07:42:47.149Z,98281.13
2019-01-30T07:45:23.101Z,98273.82
2019-01-30T07:47:51.814Z,98281.64
2019-01-30T07:50:20.647Z,98282.39
2019-01-30T07:52:49.859Z,98279.20
2019-01-30T07:55:18.548Z,98276.73
2019-01-30T07:57:47.464Z,98274.58
2019-01-30T08:00:18.928Z,98285.17
2019-01-30T08:02:53.317Z,98283.94
2019-01-30T08:05:18.086Z,98281.23
2019-01-30T08:07:47.271Z,98272.97
2019-01-30T08:10:17.196Z,98269.81
2019-01-30T08:12:48.325Z,98268.31
2019-01-30T08:15:22.528Z,98268.95
2019-01-30T08:17:51.450Z,98268.75
2019-01-30T08:20:21.772Z,98280.42
2019-01-30T08:22:50.877Z,98287.95
2019-01-30T08:25:21.893Z,98290.47
2019-01-30T08:27:51.515Z,98295.38
2019-01-30T08:30:25.500Z,98298.53
2019-01-30T08:33:04.306Z,98300.81
2019-01-30T08:35:27.768Z,98303.88
2019-01-30T08:37:56.643Z,98307.69
2019-01-30T08:40:25.459Z,98307.13
2019-01-30T08:42:54.182Z,98314.56
2019-01-30T08:45:27.820Z,98311.05
2019-01-30T08:47:56.538Z,98304.41
2019-01-30T08:50:25.563Z,98308.25
2019-01-30T08:52:54.548Z,98316.08
2019-01-30T08:55:23.346Z,98325.23
2019-01-30T08:57:53.228Z,98321.42
2019-01-30T09:00:29.542Z,98325.22
2019-01-30T09:02:58.269Z,98322.95
2019-01-30T09:05:27.086Z,98316.72
2019-01-30T09:07:56.308Z,98329.48
2019-01-30T09:10:26.934Z,98320.53
2019-01-30T09:12:55.652Z,98323.14
2019-01-30T09:15:26.357Z,98317.06
2019-01-30T09:17:55.065Z,98313.36
2019-01-30T09:20:25.254Z,98308.23
2019-01-30T09:22:54.141Z,98308.66
2019-01-30T09:25:24.974Z,98311.94
2019-01-30T09:27:53.699Z,98313.47
2019-01-30T09:30:27.874Z,98304.73
2019-01-30T09:32:56.717Z,98304.40
2019-01-30T09:35:25.449Z,98301.53
2019-01-30T09:37:54.335Z,98305.27
2019-01-30T09:40:23.672Z,98301.48
2019-01-30T09:42:52.461Z,98295.53
2019-01-30T09:45:22.953Z,98290.20
2019-01-30T09:47:51.761Z,98297.51
2019-01-30T09:50:25.668Z,98282.70
2019-01-30T09:52:54.975Z,98284.34
2019-01-30T09:55:23.877Z,98287.09
2019-01-30T09:57:52.600Z,98280.97
2019-01-30T10:00:30.270Z,98282.28
2019-01-30T10:02:59.008Z,98286.42
2019-01-30T10:05:27.725Z,98277.36
2019-01-30T10:07:56.647Z,98275.92
2019-01-30T10:10:30.364Z,98268.59
2019-01-30T10:12:59.086Z,98271.18
2019-01-30T10:15:33.686Z,98272.80
2019-01-30T10:18:02.407Z,98267.37
2019-01-30T10:20:32.739Z,98262.59
2019-01-30T10:23:01.692Z,98254.07
2019-01-30T10:25:30.524Z,98253.61
2019-01-30T10:27:59.344Z,98256.77
2019-01-30T10:30:30.905Z,98255.58
2019-01-30T10:32:59.643Z,98240.72
2019-01-30T10:35:28.517Z,98237.64
2019-01-30T10:37:57.580Z,98242.72
2019-01-30T10:40:26.644Z,98234.63
2019-01-30T10:42:57.492Z,98234.73
2019-01-30T10:45:26.537Z,98243.86
2019-01-30T10:47:55.356Z,98227.49
2019-01-30T10:50:29.072Z,98228.56
2019-01-30T10:52:57.847Z,98220.31
2019-01-30T10:55:28.465Z,98214.81
2019-01-30T10:57:59.192Z,98214.98
2019-01-30T11:00:34.108Z,98212.94
2019-01-30T11:03:02.835Z,98210.28
2019-01-30T11:05:31.546Z,98211.69
2019-01-30T11:08:00.412Z,98201.15
2019-01-30T11:10:29.127Z,98194.11
2019-01-30T11:12:57.841Z,98194.66
2019-01-30T11:15:28.911Z,98198.23
2019-01-30T11:17:59.024Z,98207.95
2019-01-30T11:20:29.046Z,98201.80
2019-01-30T11:22:57.898Z,98198.47
2019-01-30T11:25:35.441Z,98198.30
2019-01-30T11:28:11.110Z,98194.47
2019-01-30T11:30:40.036Z,98191.75
2019-01-30T11:33:08.754Z,98194.30
2019-01-30T11:35:37.527Z,98185.59
2019-01-30T11:38:08.764Z,98179.95
2019-01-30T11:40:36.864Z,98170.14
2019-01-30T11:43:05.710Z,98177.59
2019-01-30T11:45:39.864Z,98174.42
2019-01-30T11:48:08.569Z,98172.92
2019-01-30T11:50:38.125Z,98168.35
2019-01-30T11:53:06.839Z,98171.77
2019-01-30T11:55:35.655Z,98177.53
2019-01-30T11:58:05.953Z,98171.52
2019-01-30T12:00:39.572Z,98173.76
2019-01-30T12:03:08.507Z,98154.46
2019-01-30T12:05:37.390Z,98144.23
2019-01-30T12:08:06.526Z,98150.68
2019-01-30T12:10:35.236Z,98149.94
2019-01-30T12:13:04.285Z,98143.88
2019-01-30T12:15:33.039Z,98152.65
2019-01-30T12:18:01.758Z,98158.45
2019-01-30T12:20:30.606Z,98159.48
2019-01-30T12:22:59.325Z,98161.24
2019-01-30T12:25:28.049Z,98165.32
2019-01-30T12:27:56.797Z,98157.72
2019-01-30T12:30:29.556Z,98151.42
2019-01-30T12:32:58.277Z,98151.34
2019-01-30T12:35:27.344Z,98139.59
2019-01-30T12:37:56.066Z,98142.14
2019-01-30T12:40:26.348Z,98143.94
2019-01-30T12:42:55.202Z,98140.96
2019-01-30T12:45:33.033Z,98135.86
2019-01-30T12:48:01.933Z,98128.06
2019-01-30T12:50:31.642Z,98138.33
2019-01-30T12:53:00.562Z,98133.51
2019-01-30T12:55:30.010Z,98137.75
2019-01-30T12:57:58.831Z,98135.02
2019-01-30T13:00:30.463Z,98131.95
2019-01-30T13:03:00.837Z,98140.55
2019-01-30T13:05:30.000Z,98137.06
2019-01-30T13:08:00.114Z,98132.34
2019-01-30T13:10:28.899Z,98129.64
2019-01-30T13:12:57.625Z,98115.80
2019-01-30T13:15:28.338Z,98119.92
2019-01-30T13:17:57.313Z,98113.11
2019-01-30T13:20:26.143Z,98118.30
2019-01-30T13:22:54.866Z,98114.55
2019-01-30T13:25:29.119Z,98112.61
2019-01-30T13:27:57.854Z,98121.94
2019-01-30T13:30:29.741Z,98120.41
2019-01-30T13:32:58.554Z,98125.36
2019-01-30T13:35:27.298Z,98133.83
2019-01-30T13:37:56.017Z,98135.39
2019-01-30T13:40:30.018Z,98132.95
2019-01-30T13:42:58.741Z,98137.77
2019-01-30T13:45:28.551Z,98133.84
2019-01-30T13:47:57.643Z,98134.22
2019-01-30T13:50:27.835Z,98134.86
2019-01-30T13:52:56.552Z,98138.97
2019-01-30T13:55:25.722Z,98132.73
2019-01-30T13:57:54.435Z,98135.35
2019-01-30T14:00:29.044Z,98137.77
2019-01-30T14:02:57.863Z,98144.08
2019-01-30T14:05:26.559Z,98147.72
2019-01-30T14:07:55.577Z,98148.03
2019-01-30T14:10:27.122Z,98156.66
2019-01-30T14:12:55.238Z,98152.27
2019-01-30T14:15:31.831Z,98139.58
2019-01-30T14:18:00.536Z,98139.83
2019-01-30T14:20:29.470Z,98142.44
2019-01-30T14:22:58.313Z,98143.64
2019-01-30T14:25:27.050Z,98133.13
2019-01-30T14:27:55.755Z,98131.43
2019-01-30T14:30:32.799Z,98131.55
2019-01-30T14:33:01.546Z,98133.13
2019-01-30T14:35:32.077Z,98133.49
2019-01-30T14:38:00.862Z,98130.53
2019-01-30T14:40:29.585Z,98131.23
2019-01-30T14:42:58.307Z,98137.12
2019-01-30T14:45:27.208Z,98140.63
2019-01-30T14:47:55.896Z,98141.52
2019-01-30T14:50:28.030Z,98141.09
2019-01-30T14:52:56.824Z,98144.48
2019-01-30T14:55:27.094Z,98148.33
2019-01-30T14:57:55.919Z,98147.91
2019-01-30T15:00:32.498Z,98137.78
2019-01-30T15:03:01.437Z,98145.97
2019-01-30T15:05:30.743Z,98139.31
2019-01-30T15:07:59.959Z,98140.77
2019-01-30T15:10:30.270Z,98141.42
2019-01-30T15:12:59.069Z,98133.60
2019-01-30T15:15:30.603Z,98129.56
2019-01-30T15:17:59.336Z,98126.83
2019-01-30T15:20:33.377Z,98138.63
2019-01-30T15:23:02.314Z,98134.69
2019-01-30T15:25:31.126Z,98141.47
2019-01-30T15:27:59.849Z,98138.39
2019-01-30T15:30:43.327Z,98144.38
2019-01-30T15:33:12.154Z,98146.44
2019-01-30T15:35:40.863Z,98149.41
2019-01-30T15:38:11.046Z,98154.95
2019-01-30T15:40:39.777Z,98149.19
2019-01-30T15:43:08.486Z,98145.60
2019-01-30T15:45:37.293Z,98152.67
2019-01-30T15:48:06.208Z,98152.03
2019-01-30T15:50:37.802Z,98155.06
2019-01-30T15:53:09.168Z,98155.63
2019-01-30T15:55:37.918Z,98157.36
2019-01-30T15:58:09.134Z,98156.27
2019-01-30T16:00:50.267Z,98152.03
2019-01-30T16:03:18.979Z,98152.47
2019-01-30T16:05:47.689Z,98156.28
2019-01-30T16:08:16.555Z,98149.31
2019-01-30T16:10:45.965Z,98155.30
2019-01-30T16:13:14.689Z,98156.17
2019-01-30T16:15:49.475Z,98159.23
2019-01-30T16:18:18.188Z,98156.92
2019-01-30T16:20:46.905Z,98151.28
2019-01-30T16:23:15.751Z,98151.48
2019-01-30T16:25:44.469Z,98153.79
2019-01-30T16:28:13.187Z,98151.50
2019-01-30T16:30:42.540Z,98152.91
2019-01-30T16:33:11.284Z,98161.08
2019-01-30T16:35:40.005Z,98161.63
2019-01-30T16:38:10.462Z,98162.83
2019-01-30T16:40:39.180Z,98158.45
2019-01-30T16:43:08.319Z,98159.11
2019-01-30T16:45:37.543Z,98163.47
2019-01-30T16:48:07.257Z,98156.27
2019-01-30T16:50:35.976Z,98163.37
2019-01-30T16:53:05.936Z,98163.57
2019-01-30T16:55:34.664Z,98168.92
2019-01-30T16:58:05.705Z,98166.20
2019-01-30T17:00:36.878Z,98173.28
2019-01-30T17:03:07.711Z,98172.29
2019-01-30T17:05:36.607Z,98174.90
2019-01-30T17:08:06.962Z,98178.34
2019-01-30T17:10:35.675Z,98179.08
2019-01-30T17:13:05.091Z,98174.48
2019-01-30T17:15:36.367Z,98172.94
2019-01-30T17:18:06.681Z,98167.81
2019-01-30T17:20:37.597Z,98168.66
2019-01-30T17:23:06.643Z,98165.61
2019-01-30T17:25:36.075Z,98166.88
2019-01-30T17:28:05.429Z,98165.91
2019-01-30T17:30:49.321Z,98159.84
2019-01-30T17:33:18.150Z,98162.33
2019-01-30T17:35:46.874Z,98165.17
2019-01-30T17:38:15.640Z,98165.61
2019-01-30T17:40:47.057Z,98172.88
2019-01-30T17:43:15.457Z,98170.50
2019-01-30T17:45:45.490Z,98170.37
2019-01-30T17:48:14.507Z,98173.61
2019-01-30T17:50:43.329Z,98168.69
2019-01-30T17:53:12.144Z,98170.80
2019-01-30T17:55:40.968Z,98177.72
2019-01-30T17:58:09.908Z,98177.67
2019-01-30T18:00:46.998Z,98166.80
2019-01-30T18:03:15.953Z,98171.20
2019-01-30T18:05:46.090Z,98165.79
2019-01-30T18:08:14.990Z,98171.34
2019-01-30T18:10:43.775Z,98172.51
2019-01-30T18:13:12.497Z,98164.81
2019-01-30T18:15:41.258Z,98176.12
2019-01-30T18:18:09.980Z,98172.58
2019-01-30T18:20:38.805Z,98172.09
2019-01-30T18:23:07.687Z,98166.81
2019-01-30T18:25:36.407Z,98164.02
2019-01-30T18:28:05.431Z,98168.30
2019-01-30T18:30:34.559Z,98156.39
2019-01-30T18:33:03.593Z,98162.78
2019-01-30T18:35:32.308Z,98162.45
2019-01-30T18:38:01.078Z,98164.36
2019-01-30T18:40:33.748Z,98165.39
2019-01-30T18:43:02.464Z,98167.48
2019-01-30T18:45:31.221Z,98169.16
2019-01-30T18:48:00.056Z,98170.42
2019-01-30T18:50:32.573Z,98176.82
2019-01-30T18:53:02.239Z,98175.31
2019-01-30T18:55:31.208Z,98179.55
2019-01-30T18:57:59.972Z,98178.38
2019-01-30T19:00:31.395Z,98183.41
2019-01-30T19:03:01.527Z,98181.74
2019-01-30T19:05:31.371Z,98187.56
2019-01-30T19:08:00.344Z,98189.82
2019-01-30T19:10:29.060Z,98197.17
2019-01-30T19:12:57.950Z,98198.73
2019-01-30T19:15:31.053Z,98199.37
2019-01-30T19:17:59.789Z,98204.70
2019-01-30T19:20:40.482Z,98200.12
2019-01-30T19:23:09.311Z,98201.47
2019-01-30T19:25:38.230Z,98202.52
2019-01-30T19:28:08.648Z,98197.78
2019-01-30T19:30:37.415Z,98202.18
2019-01-30T19:33:08.410Z,98197.43
2019-01-30T19:35:37.177Z,98194.39
2019-01-30T19:38:07.095Z,98195.57
2019-01-30T19:40:35.807Z,98192.38
2019-01-30T19:43:05.129Z,98200.63
2019-01-30T19:45:33.876Z,98199.66
2019-01-30T19:48:02.705Z,98202.86
2019-01-30T19:50:32.065Z,98197.67
2019-01-30T19:53:01.103Z,98201.20
2019-01-30T19:55:31.446Z,98202.89
2019-01-30T19:58:00.461Z,98212.20
2019-01-30T20:00:37.424Z,98206.52
2019-01-30T20:03:09.775Z,98210.91
2019-01-30T20:05:38.667Z,98213.42
2019-01-30T20:08:07.392Z,98219.77
2019-01-30T20:10:37.047Z,98214.52
2019-01-30T20:13:05.872Z,98220.13
2019-01-30T20:15:34.688Z,98218.37
2019-01-30T20:18:03.877Z,98227.30
2019-01-30T20:20:32.801Z,98234.18
2019-01-30T20:23:10.994Z,98232.78
2019-01-30T20:28:32.614Z,98234.64
2019-01-30T20:31:01.489Z,98233.78
2019-01-30T20:33:30.179Z,98236.42
2019-01-30T20:35:58.903Z,98237.42
2019-01-30T20:38:27.969Z,98236.80
2019-01-30T20:40:56.694Z,98238.31
2019-01-30T20:43:25.416Z,98234.30
2019-01-30T20:45:54.246Z,98237.52
2019-01-30T20:48:22.938Z,98238.53
2019-01-30T20:50:51.653Z,98247.57
2019-01-30T20:53:20.506Z,98250.45
2019-01-30T20:55:49.280Z,98250.45
2019-01-30T20:58:18.001Z,98247.48
2019-01-30T21:00:46.760Z,98246.18
2019-01-30T21:03:15.482Z,98246.30
2019-01-30T21:05:45.051Z,98248.33
2019-01-30T21:08:14.144Z,98253.00
2019-01-30T21:10:42.865Z,98255.20
2019-01-30T21:13:11.588Z,98257.67
2019-01-30T21:15:40.459Z,98260.92
2019-01-30T21:18:09.381Z,98258.84
2019-01-30T21:20:38.109Z,98263.25
2019-01-30T21:23:06.907Z,98266.11
2019-01-30T21:25:35.645Z,98264.23
2019-01-30T21:28:04.457Z,98254.42
2019-01-30T21:30:35.504Z,98258.34
2019-01-30T21:33:04.426Z,98259.19
2019-01-30T21:35:33.137Z,98266.16
2019-01-30T21:38:02.159Z,98264.23
2019-01-30T21:40:31.978Z,98266.88
2019-01-30T21:43:00.705Z,98263.42
2019-01-30T21:45:29.474Z,98264.36
2019-01-30T21:47:58.190Z,98265.13
2019-01-30T21:50:26.918Z,98267.50
2019-01-30T21:52:55.786Z,98264.45
2019-01-30T21:55:27.700Z,98265.84
2019-01-30T21:57:56.424Z,98262.70
2019-01-30T22:00:29.831Z,98261.72
2019-01-30T22:02:58.657Z,98267.83
2019-01-30T22:05:27.481Z,98270.09
2019-01-30T22:08:01.095Z,98270.78
2019-01-30T22:10:28.597Z,98268.62
2019-01-30T22:12:57.415Z,98270.58
2019-01-30T22:15:27.027Z,98267.44
2019-01-30T22:17:55.757Z,98266.38
2019-01-30T22:20:27.407Z,98260.91
2019-01-30T22:22:56.240Z,98267.14
2019-01-30T22:25:26.766Z,98272.09
2019-01-30T22:27:55.543Z,98269.58
2019-01-30T22:30:26.917Z,98265.55
2019-01-30T22:32:55.639Z,98266.41
2019-01-30T22:35:24.524Z,98266.17
2019-01-30T22:37:53.250Z,98267.70
2019-01-30T22:40:22.078Z,98260.59
2019-01-30T22:42:50.845Z,98261.05
2019-01-30T22:45:20.975Z,98260.59
2019-01-30T22:47:49.698Z,98256.81
2019-01-30T22:50:19.959Z,98255.30
2019-01-30T22:52:48.693Z,98254.45
2019-01-30T22:55:19.790Z,98261.73
2019-01-30T22:57:51.122Z,98253.08
2019-01-30T23:00:32.713Z,98250.76
2019-01-30T23:03:01.898Z,98243.67
2019-01-30T23:05:48.511Z,98252.42
2019-01-30T23:08:23.343Z,98248.59
2019-01-30T23:11:00.765Z,98244.73
2019-01-30T23:13:38.221Z,98239.73
2019-01-30T23:16:21.736Z,98233.24
2019-01-30T23:18:59.295Z,98228.98
2019-01-30T23:21:36.491Z,98229.72
2019-01-30T23:24:41.222Z,98229.56
2019-01-30T23:27:12.828Z,98233.13
2019-01-30T23:30:11.801Z,98226.41
2019-01-30T23:33:03.969Z,98223.14
2019-01-30T23:35:35.642Z,98224.20
2019-01-30T23:38:07.246Z,98224.05
2019-01-30T23:40:50.858Z,98225.56
2019-01-30T23:43:34.530Z,98230.98
2019-01-30T23:46:06.280Z,98235.77
2019-01-30T23:48:54.589Z,98241.06
2019-01-30T23:51:32.562Z,98244.66
2019-01-30T23:54:16.038Z,98241.83
2019-01-30T23:57:04.482Z,98233.77
2019-01-30T23:59:39.057Z,98239.56
